sensor_id;sensor_type;location;lat;lon;timestamp;temperature;humidity
74384;DHT22;62824;52.994;-3.936;2024-02-14T00:00:22;9.60;99.90
74384;DHT22;62824;52.994;-3.936;2024-02-14T00:02:50;9.50;99.90
74384;DHT22;62824;52.994;-3.936;2024-02-14T00:05:20;9.60;99.90
74384;DHT22;62824;52.994;-3.936;2024-02-14T00:07:46;9.60;99.90
74384;DHT22;62824;52.994;-3.936;2024-02-14T00:10:12;9.60;99.90
74384;DHT22;62824;52.994;-3.936;2024-02-14T00:12:37;9.60;99.90
74384;DHT22;62824;52.994;-3.936;2024-02-14T00:15:04;9.60;99.90
74384;DHT22;62824;52.994;-3.936;2024-02-14T00:17:31;9.60;99.90
74384;DHT22;62824;52.994;-3.936;2024-02-14T00:19:57;9.60;99.90
74384;DHT22;62824;52.994;-3.936;2024-02-14T00:22:23;9.60;99.90
74384;DHT22;62824;52.994;-3.936;2024-02-14T00:24:49;9.60;99.90
74384;DHT22;62824;52.994;-3.936;2024-02-14T00:27:15;9.60;99.90
74384;DHT22;62824;52.994;-3.936;2024-02-14T00:29:43;9.60;99.90
74384;DHT22;62824;52.994;-3.936;2024-02-14T00:32:11;9.60;99.90
74384;DHT22;62824;52.994;-3.936;2024-02-14T00:34:37;9.70;99.90
74384;DHT22;62824;52.994;-3.936;2024-02-14T00:37:03;9.70;99.90
74384;DHT22;62824;52.994;-3.936;2024-02-14T00:39:29;9.60;99.90
74384;DHT22;62824;52.994;-3.936;2024-02-14T00:41:55;9.60;99.90
74384;DHT22;62824;52.994;-3.936;2024-02-14T00:44:21;9.60;99.90
74384;DHT22;62824;52.994;-3.936;2024-02-14T00:46:47;9.70;99.90
74384;DHT22;62824;52.994;-3.936;2024-02-14T00:49:14;9.70;99.90
74384;DHT22;62824;52.994;-3.936;2024-02-14T00:51:58;9.70;99.90
74384;DHT22;62824;52.994;-3.936;2024-02-14T00:54:24;9.70;99.90
74384;DHT22;62824;52.994;-3.936;2024-02-14T00:56:50;9.70;99.90
74384;DHT22;62824;52.994;-3.936;2024-02-14T00:59:15;9.70;99.90
74384;DHT22;62824;52.994;-3.936;2024-02-14T01:01:42;9.70;99.90
74384;DHT22;62824;52.994;-3.936;2024-02-14T01:04:08;9.80;99.90
74384;DHT22;62824;52.994;-3.936;2024-02-14T01:06:33;9.70;99.90
74384;DHT22;62824;52.994;-3.936;2024-02-14T01:08:59;9.80;99.90
74384;DHT22;62824;52.994;-3.936;2024-02-14T01:11:25;9.80;99.90
74384;DHT22;62824;52.994;-3.936;2024-02-14T01:13:51;9.80;99.90
74384;DHT22;62824;52.994;-3.936;2024-02-14T01:16:17;9.80;99.90
74384;DHT22;62824;52.994;-3.936;2024-02-14T01:18:43;9.80;99.90
74384;DHT22;62824;52.994;-3.936;2024-02-14T01:21:09;9.80;99.90
74384;DHT22;62824;52.994;-3.936;2024-02-14T01:23:35;9.80;99.90
74384;DHT22;62824;52.994;-3.936;2024-02-14T01:26:01;9.80;99.90
74384;DHT22;62824;52.994;-3.936;2024-02-14T01:28:27;9.80;99.90
74384;DHT22;62824;52.994;-3.936;2024-02-14T01:30:53;9.90;99.90
74384;DHT22;62824;52.994;-3.936;2024-02-14T01:33:19;9.80;99.90
74384;DHT22;62824;52.994;-3.936;2024-02-14T01:35:45;9.90;99.90
74384;DHT22;62824;52.994;-3.936;2024-02-14T01:38:11;9.90;99.90
74384;DHT22;62824;52.994;-3.936;2024-02-14T01:40:38;9.90;99.90
74384;DHT22;62824;52.994;-3.936;2024-02-14T01:43:04;9.90;99.90
74384;DHT22;62824;52.994;-3.936;2024-02-14T01:45:30;10.00;99.90
74384;DHT22;62824;52.994;-3.936;2024-02-14T01:47:56;10.00;99.90
74384;DHT22;62824;52.994;-3.936;2024-02-14T01:50:22;10.00;99.90
74384;DHT22;62824;52.994;-3.936;2024-02-14T01:52:54;10.00;99.90
74384;DHT22;62824;52.994;-3.936;2024-02-14T01:55:21;9.90;99.90
74384;DHT22;62824;52.994;-3.936;2024-02-14T01:57:47;9.90;99.90
74384;DHT22;62824;52.994;-3.936;2024-02-14T02:00:14;10.00;99.90
74384;DHT22;62824;52.994;-3.936;2024-02-14T02:02:43;9.90;99.90
74384;DHT22;62824;52.994;-3.936;2024-02-14T02:05:10;10.00;99.90
74384;DHT22;62824;52.994;-3.936;2024-02-14T02:07:36;9.90;99.90
74384;DHT22;62824;52.994;-3.936;2024-02-14T02:10:05;9.90;99.90
74384;DHT22;62824;52.994;-3.936;2024-02-14T02:12:31;10.00;99.90
74384;DHT22;62824;52.994;-3.936;2024-02-14T02:14:58;10.00;99.90
74384;DHT22;62824;52.994;-3.936;2024-02-14T02:17:24;10.00;99.90
74384;DHT22;62824;52.994;-3.936;2024-02-14T02:19:50;10.00;99.90
74384;DHT22;62824;52.994;-3.936;2024-02-14T02:22:18;10.00;99.90
74384;DHT22;62824;52.994;-3.936;2024-02-14T02:24:44;10.00;99.90
74384;DHT22;62824;52.994;-3.936;2024-02-14T02:27:10;10.10;99.90
74384;DHT22;62824;52.994;-3.936;2024-02-14T02:29:39;10.10;99.90
74384;DHT22;62824;52.994;-3.936;2024-02-14T02:32:05;10.10;99.90
74384;DHT22;62824;52.994;-3.936;2024-02-14T02:34:31;10.20;99.90
74384;DHT22;62824;52.994;-3.936;2024-02-14T02:36:57;10.20;99.90
74384;DHT22;62824;52.994;-3.936;2024-02-14T02:39:23;10.20;99.90
74384;DHT22;62824;52.994;-3.936;2024-02-14T02:41:49;10.20;99.90
74384;DHT22;62824;52.994;-3.936;2024-02-14T02:44:15;10.20;99.90
74384;DHT22;62824;52.994;-3.936;2024-02-14T02:46:41;10.20;99.90
74384;DHT22;62824;52.994;-3.936;2024-02-14T02:49:07;10.20;99.90
74384;DHT22;62824;52.994;-3.936;2024-02-14T02:51:33;10.20;99.90
74384;DHT22;62824;52.994;-3.936;2024-02-14T02:53:58;10.20;99.90
74384;DHT22;62824;52.994;-3.936;2024-02-14T02:56:24;10.10;99.90
74384;DHT22;62824;52.994;-3.936;2024-02-14T02:58:54;10.10;99.90
74384;DHT22;62824;52.994;-3.936;2024-02-14T03:01:20;10.10;99.90
74384;DHT22;62824;52.994;-3.936;2024-02-14T03:03:49;10.10;99.90
74384;DHT22;62824;52.994;-3.936;2024-02-14T03:06:15;10.10;99.90
74384;DHT22;62824;52.994;-3.936;2024-02-14T03:08:41;10.10;99.90
74384;DHT22;62824;52.994;-3.936;2024-02-14T03:11:07;10.10;99.90
74384;DHT22;62824;52.994;-3.936;2024-02-14T03:13:33;10.10;99.90
74384;DHT22;62824;52.994;-3.936;2024-02-14T03:15:59;10.10;99.90
74384;DHT22;62824;52.994;-3.936;2024-02-14T03:18:25;10.00;99.90
74384;DHT22;62824;52.994;-3.936;2024-02-14T03:20:51;10.00;99.90
74384;DHT22;62824;52.994;-3.936;2024-02-14T03:23:19;10.10;99.90
74384;DHT22;62824;52.994;-3.936;2024-02-14T03:25:45;10.10;99.90
74384;DHT22;62824;52.994;-3.936;2024-02-14T03:28:11;10.10;99.90
74384;DHT22;62824;52.994;-3.936;2024-02-14T03:30:38;10.10;99.90
74384;DHT22;62824;52.994;-3.936;2024-02-14T03:33:07;10.00;99.90
74384;DHT22;62824;52.994;-3.936;2024-02-14T03:35:36;10.10;99.90
74384;DHT22;62824;52.994;-3.936;2024-02-14T03:38:02;10.10;99.90
74384;DHT22;62824;52.994;-3.936;2024-02-14T03:40:29;10.10;99.90
74384;DHT22;62824;52.994;-3.936;2024-02-14T03:42:56;10.10;99.90
74384;DHT22;62824;52.994;-3.936;2024-02-14T03:45:22;10.00;99.90
74384;DHT22;62824;52.994;-3.936;2024-02-14T03:47:49;10.00;99.90
74384;DHT22;62824;52.994;-3.936;2024-02-14T03:50:14;10.10;99.90
74384;DHT22;62824;52.994;-3.936;2024-02-14T03:52:41;10.10;99.90
74384;DHT22;62824;52.994;-3.936;2024-02-14T03:55:08;10.00;99.90
74384;DHT22;62824;52.994;-3.936;2024-02-14T03:57:39;10.00;99.90
74384;DHT22;62824;52.994;-3.936;2024-02-14T04:00:05;10.00;99.90
74384;DHT22;62824;52.994;-3.936;2024-02-14T04:02:35;10.00;99.90
74384;DHT22;62824;52.994;-3.936;2024-02-14T04:05:01;10.00;99.90
74384;DHT22;62824;52.994;-3.936;2024-02-14T04:07:28;10.00;99.90
74384;DHT22;62824;52.994;-3.936;2024-02-14T04:09:55;10.00;99.90
74384;DHT22;62824;52.994;-3.936;2024-02-14T04:12:21;10.00;99.90
74384;DHT22;62824;52.994;-3.936;2024-02-14T04:14:47;10.00;99.90
74384;DHT22;62824;52.994;-3.936;2024-02-14T04:17:12;10.00;99.90
74384;DHT22;62824;52.994;-3.936;2024-02-14T04:19:39;10.00;99.90
74384;DHT22;62824;52.994;-3.936;2024-02-14T04:22:05;10.00;99.90
74384;DHT22;62824;52.994;-3.936;2024-02-14T04:24:33;10.00;99.90
74384;DHT22;62824;52.994;-3.936;2024-02-14T04:27:00;10.00;99.90
74384;DHT22;62824;52.994;-3.936;2024-02-14T04:29:28;10.00;99.90
74384;DHT22;62824;52.994;-3.936;2024-02-14T04:31:56;10.00;99.90
74384;DHT22;62824;52.994;-3.936;2024-02-14T04:34:22;10.00;99.90
74384;DHT22;62824;52.994;-3.936;2024-02-14T04:36:47;10.00;99.90
74384;DHT22;62824;52.994;-3.936;2024-02-14T04:39:13;10.00;99.90
74384;DHT22;62824;52.994;-3.936;2024-02-14T04:41:39;10.00;99.90
74384;DHT22;62824;52.994;-3.936;2024-02-14T04:44:05;10.00;99.90
74384;DHT22;62824;52.994;-3.936;2024-02-14T04:46:34;10.00;99.90
74384;DHT22;62824;52.994;-3.936;2024-02-14T04:49:05;10.00;99.90
74384;DHT22;62824;52.994;-3.936;2024-02-14T04:51:30;10.00;99.90
74384;DHT22;62824;52.994;-3.936;2024-02-14T04:53:57;10.00;99.90
74384;DHT22;62824;52.994;-3.936;2024-02-14T04:56:26;10.00;99.90
74384;DHT22;62824;52.994;-3.936;2024-02-14T04:58:55;10.00;99.90
74384;DHT22;62824;52.994;-3.936;2024-02-14T05:01:21;10.00;99.90
74384;DHT22;62824;52.994;-3.936;2024-02-14T05:03:48;9.90;99.90
74384;DHT22;62824;52.994;-3.936;2024-02-14T05:06:15;9.90;99.90
74384;DHT22;62824;52.994;-3.936;2024-02-14T05:08:41;9.90;99.90
74384;DHT22;62824;52.994;-3.936;2024-02-14T05:11:06;9.90;99.90
74384;DHT22;62824;52.994;-3.936;2024-02-14T05:13:32;9.90;99.90
74384;DHT22;62824;52.994;-3.936;2024-02-14T05:16:01;9.90;99.90
74384;DHT22;62824;52.994;-3.936;2024-02-14T05:18:27;9.90;99.90
74384;DHT22;62824;52.994;-3.936;2024-02-14T05:20:53;10.00;99.90
74384;DHT22;62824;52.994;-3.936;2024-02-14T05:23:19;10.00;99.90
74384;DHT22;62824;52.994;-3.936;2024-02-14T05:25:44;9.90;99.90
74384;DHT22;62824;52.994;-3.936;2024-02-14T05:28:11;9.90;99.90
74384;DHT22;62824;52.994;-3.936;2024-02-14T05:30:40;9.90;99.90
74384;DHT22;62824;52.994;-3.936;2024-02-14T05:33:06;9.90;99.90
74384;DHT22;62824;52.994;-3.936;2024-02-14T05:35:32;10.00;99.90
74384;DHT22;62824;52.994;-3.936;2024-02-14T05:37:58;9.90;99.90
74384;DHT22;62824;52.994;-3.936;2024-02-14T05:40:23;9.90;99.90
74384;DHT22;62824;52.994;-3.936;2024-02-14T05:42:49;9.90;99.90
74384;DHT22;62824;52.994;-3.936;2024-02-14T05:45:15;10.00;99.90
74384;DHT22;62824;52.994;-3.936;2024-02-14T05:47:42;9.90;99.90
74384;DHT22;62824;52.994;-3.936;2024-02-14T05:50:08;10.00;99.90
74384;DHT22;62824;52.994;-3.936;2024-02-14T05:52:37;10.00;99.90
74384;DHT22;62824;52.994;-3.936;2024-02-14T05:55:03;10.00;99.90
74384;DHT22;62824;52.994;-3.936;2024-02-14T05:57:29;10.00;99.90
74384;DHT22;62824;52.994;-3.936;2024-02-14T05:59:55;10.10;99.90
74384;DHT22;62824;52.994;-3.936;2024-02-14T06:02:21;10.10;99.90
74384;DHT22;62824;52.994;-3.936;2024-02-14T06:04:47;10.10;99.90
74384;DHT22;62824;52.994;-3.936;2024-02-14T06:07:12;10.10;99.90
74384;DHT22;62824;52.994;-3.936;2024-02-14T06:09:38;10.10;99.90
74384;DHT22;62824;52.994;-3.936;2024-02-14T06:12:04;10.10;99.90
74384;DHT22;62824;52.994;-3.936;2024-02-14T06:14:30;10.10;99.90
74384;DHT22;62824;52.994;-3.936;2024-02-14T06:16:59;10.10;99.90
74384;DHT22;62824;52.994;-3.936;2024-02-14T06:19:26;10.10;99.90
74384;DHT22;62824;52.994;-3.936;2024-02-14T06:21:52;10.20;99.90
74384;DHT22;62824;52.994;-3.936;2024-02-14T06:24:18;10.10;99.90
74384;DHT22;62824;52.994;-3.936;2024-02-14T06:26:45;10.10;99.90
74384;DHT22;62824;52.994;-3.936;2024-02-14T06:29:11;10.10;99.90
74384;DHT22;62824;52.994;-3.936;2024-02-14T06:31:37;10.10;99.90
74384;DHT22;62824;52.994;-3.936;2024-02-14T06:34:03;10.10;99.90
74384;DHT22;62824;52.994;-3.936;2024-02-14T06:36:29;10.20;99.90
74384;DHT22;62824;52.994;-3.936;2024-02-14T06:38:54;10.10;99.90
74384;DHT22;62824;52.994;-3.936;2024-02-14T06:41:21;10.20;99.90
74384;DHT22;62824;52.994;-3.936;2024-02-14T06:43:47;10.20;99.90
74384;DHT22;62824;52.994;-3.936;2024-02-14T06:46:12;10.20;99.90
74384;DHT22;62824;52.994;-3.936;2024-02-14T06:48:38;10.10;99.90
74384;DHT22;62824;52.994;-3.936;2024-02-14T06:51:06;10.20;99.90
74384;DHT22;62824;52.994;-3.936;2024-02-14T06:53:32;10.20;99.90
74384;DHT22;62824;52.994;-3.936;2024-02-14T06:55:58;10.20;99.90
74384;DHT22;62824;52.994;-3.936;2024-02-14T06:58:23;10.20;99.90
74384;DHT22;62824;52.994;-3.936;2024-02-14T07:00:49;10.30;99.90
74384;DHT22;62824;52.994;-3.936;2024-02-14T07:03:15;10.30;99.90
74384;DHT22;62824;52.994;-3.936;2024-02-14T07:05:41;10.30;99.90
74384;DHT22;62824;52.994;-3.936;2024-02-14T07:08:07;10.30;99.90
74384;DHT22;62824;52.994;-3.936;2024-02-14T07:10:33;10.40;99.90
74384;DHT22;62824;52.994;-3.936;2024-02-14T07:12:59;10.40;99.90
74384;DHT22;62824;52.994;-3.936;2024-02-14T07:15:25;10.40;99.90
74384;DHT22;62824;52.994;-3.936;2024-02-14T07:17:54;10.40;99.90
74384;DHT22;62824;52.994;-3.936;2024-02-14T07:20:21;10.50;99.90
74384;DHT22;62824;52.994;-3.936;2024-02-14T07:22:47;10.50;99.90
74384;DHT22;62824;52.994;-3.936;2024-02-14T07:25:13;10.50;99.90
74384;DHT22;62824;52.994;-3.936;2024-02-14T07:27:40;10.50;99.90
74384;DHT22;62824;52.994;-3.936;2024-02-14T07:30:06;10.50;99.90
74384;DHT22;62824;52.994;-3.936;2024-02-14T07:32:32;10.50;99.90
74384;DHT22;62824;52.994;-3.936;2024-02-14T07:34:58;10.50;99.90
74384;DHT22;62824;52.994;-3.936;2024-02-14T07:37:24;10.50;99.90
74384;DHT22;62824;52.994;-3.936;2024-02-14T07:39:50;10.50;99.90
74384;DHT22;62824;52.994;-3.936;2024-02-14T07:42:16;10.50;99.90
74384;DHT22;62824;52.994;-3.936;2024-02-14T07:44:42;10.50;99.90
74384;DHT22;62824;52.994;-3.936;2024-02-14T07:47:08;10.60;99.90
74384;DHT22;62824;52.994;-3.936;2024-02-14T07:49:34;10.50;99.90
74384;DHT22;62824;52.994;-3.936;2024-02-14T07:51:59;10.60;99.90
74384;DHT22;62824;52.994;-3.936;2024-02-14T07:54:25;10.60;99.90
74384;DHT22;62824;52.994;-3.936;2024-02-14T07:56:51;10.60;99.90
74384;DHT22;62824;52.994;-3.936;2024-02-14T07:59:17;10.60;99.90
74384;DHT22;62824;52.994;-3.936;2024-02-14T08:01:43;10.60;99.90
74384;DHT22;62824;52.994;-3.936;2024-02-14T08:04:09;10.60;99.90
74384;DHT22;62824;52.994;-3.936;2024-02-14T08:06:35;10.70;99.90
74384;DHT22;62824;52.994;-3.936;2024-02-14T08:09:00;10.70;99.90
74384;DHT22;62824;52.994;-3.936;2024-02-14T08:11:32;10.70;99.90
74384;DHT22;62824;52.994;-3.936;2024-02-14T08:13:57;10.70;99.90
74384;DHT22;62824;52.994;-3.936;2024-02-14T08:16:23;10.70;99.90
74384;DHT22;62824;52.994;-3.936;2024-02-14T08:18:49;10.70;99.90
74384;DHT22;62824;52.994;-3.936;2024-02-14T08:21:16;10.80;99.90
74384;DHT22;62824;52.994;-3.936;2024-02-14T08:23:42;10.70;99.90
74384;DHT22;62824;52.994;-3.936;2024-02-14T08:26:08;10.80;99.90
74384;DHT22;62824;52.994;-3.936;2024-02-14T08:28:39;10.80;99.90
74384;DHT22;62824;52.994;-3.936;2024-02-14T08:31:11;10.80;99.90
74384;DHT22;62824;52.994;-3.936;2024-02-14T08:33:37;10.80;99.90
74384;DHT22;62824;52.994;-3.936;2024-02-14T08:36:04;10.80;99.90
74384;DHT22;62824;52.994;-3.936;2024-02-14T08:38:30;10.80;99.90
74384;DHT22;62824;52.994;-3.936;2024-02-14T08:40:57;10.80;99.90
74384;DHT22;62824;52.994;-3.936;2024-02-14T08:43:23;10.80;99.90
74384;DHT22;62824;52.994;-3.936;2024-02-14T08:45:54;10.80;99.90
74384;DHT22;62824;52.994;-3.936;2024-02-14T08:48:20;10.80;99.90
74384;DHT22;62824;52.994;-3.936;2024-02-14T08:50:46;10.80;99.90
74384;DHT22;62824;52.994;-3.936;2024-02-14T08:53:15;10.70;99.90
74384;DHT22;62824;52.994;-3.936;2024-02-14T08:55:41;10.70;99.90
74384;DHT22;62824;52.994;-3.936;2024-02-14T08:58:07;10.70;99.90
74384;DHT22;62824;52.994;-3.936;2024-02-14T09:00:35;10.70;99.90
74384;DHT22;62824;52.994;-3.936;2024-02-14T09:03:03;10.70;99.90
74384;DHT22;62824;52.994;-3.936;2024-02-14T09:05:28;10.70;99.90
74384;DHT22;62824;52.994;-3.936;2024-02-14T09:07:54;10.80;99.90
74384;DHT22;62824;52.994;-3.936;2024-02-14T09:10:21;10.80;99.90
74384;DHT22;62824;52.994;-3.936;2024-02-14T09:12:47;10.70;99.90
74384;DHT22;62824;52.994;-3.936;2024-02-14T09:15:13;10.80;99.90
74384;DHT22;62824;52.994;-3.936;2024-02-14T09:17:39;10.80;99.90
74384;DHT22;62824;52.994;-3.936;2024-02-14T09:20:09;10.80;99.90
74384;DHT22;62824;52.994;-3.936;2024-02-14T09:22:36;10.70;99.90
74384;DHT22;62824;52.994;-3.936;2024-02-14T09:25:02;10.80;99.90
74384;DHT22;62824;52.994;-3.936;2024-02-14T09:27:30;10.70;99.90
74384;DHT22;62824;52.994;-3.936;2024-02-14T09:29:56;10.80;99.90
74384;DHT22;62824;52.994;-3.936;2024-02-14T09:32:22;10.80;99.90
74384;DHT22;62824;52.994;-3.936;2024-02-14T09:34:47;10.80;99.90
74384;DHT22;62824;52.994;-3.936;2024-02-14T09:37:13;10.80;99.90
74384;DHT22;62824;52.994;-3.936;2024-02-14T09:39:39;10.80;99.90
74384;DHT22;62824;52.994;-3.936;2024-02-14T09:42:13;10.80;99.90
74384;DHT22;62824;52.994;-3.936;2024-02-14T09:44:40;10.80;99.90
74384;DHT22;62824;52.994;-3.936;2024-02-14T09:47:07;10.80;99.90
74384;DHT22;62824;52.994;-3.936;2024-02-14T09:49:35;10.80;99.90
74384;DHT22;62824;52.994;-3.936;2024-02-14T09:52:05;10.80;99.90
74384;DHT22;62824;52.994;-3.936;2024-02-14T09:54:32;10.80;99.90
74384;DHT22;62824;52.994;-3.936;2024-02-14T09:57:02;10.80;99.90
74384;DHT22;62824;52.994;-3.936;2024-02-14T09:59:29;10.70;99.90
74384;DHT22;62824;52.994;-3.936;2024-02-14T10:01:54;10.80;99.90
74384;DHT22;62824;52.994;-3.936;2024-02-14T10:04:21;10.80;99.90
74384;DHT22;62824;52.994;-3.936;2024-02-14T10:06:48;10.80;99.90
74384;DHT22;62824;52.994;-3.936;2024-02-14T10:09:21;10.80;99.90
74384;DHT22;62824;52.994;-3.936;2024-02-14T10:11:48;10.80;99.90
74384;DHT22;62824;52.994;-3.936;2024-02-14T10:14:14;10.80;99.90
74384;DHT22;62824;52.994;-3.936;2024-02-14T10:16:41;10.80;99.90
74384;DHT22;62824;52.994;-3.936;2024-02-14T10:19:15;10.80;99.90
74384;DHT22;62824;52.994;-3.936;2024-02-14T10:21:41;10.70;99.90
74384;DHT22;62824;52.994;-3.936;2024-02-14T10:24:07;10.70;99.90
74384;DHT22;62824;52.994;-3.936;2024-02-14T10:26:34;10.70;99.90
74384;DHT22;62824;52.994;-3.936;2024-02-14T10:29:01;10.70;99.90
74384;DHT22;62824;52.994;-3.936;2024-02-14T10:31:27;10.70;99.90
74384;DHT22;62824;52.994;-3.936;2024-02-14T10:33:56;10.70;99.90
74384;DHT22;62824;52.994;-3.936;2024-02-14T10:36:22;10.70;99.90
74384;DHT22;62824;52.994;-3.936;2024-02-14T10:38:50;10.70;99.90
74384;DHT22;62824;52.994;-3.936;2024-02-14T10:41:17;10.70;99.90
74384;DHT22;62824;52.994;-3.936;2024-02-14T10:43:43;10.70;99.90
74384;DHT22;62824;52.994;-3.936;2024-02-14T10:46:19;10.70;99.90
74384;DHT22;62824;52.994;-3.936;2024-02-14T10:48:47;10.70;99.90
74384;DHT22;62824;52.994;-3.936;2024-02-14T10:51:15;10.70;99.90
74384;DHT22;62824;52.994;-3.936;2024-02-14T10:53:44;10.70;99.90
74384;DHT22;62824;52.994;-3.936;2024-02-14T10:56:18;10.70;99.90
74384;DHT22;62824;52.994;-3.936;2024-02-14T10:58:47;10.70;99.90
74384;DHT22;62824;52.994;-3.936;2024-02-14T11:01:15;10.60;99.90
74384;DHT22;62824;52.994;-3.936;2024-02-14T11:03:46;10.70;99.90
74384;DHT22;62824;52.994;-3.936;2024-02-14T11:06:16;10.70;99.90
74384;DHT22;62824;52.994;-3.936;2024-02-14T11:08:53;10.60;99.90
74384;DHT22;62824;52.994;-3.936;2024-02-14T11:11:18;10.70;99.90
74384;DHT22;62824;52.994;-3.936;2024-02-14T11:13:44;10.70;99.90
74384;DHT22;62824;52.994;-3.936;2024-02-14T11:16:10;10.70;99.90
74384;DHT22;62824;52.994;-3.936;2024-02-14T11:18:37;10.70;99.90
74384;DHT22;62824;52.994;-3.936;2024-02-14T11:21:04;10.60;99.90
74384;DHT22;62824;52.994;-3.936;2024-02-14T11:23:30;10.60;99.90
74384;DHT22;62824;52.994;-3.936;2024-02-14T11:26:16;10.70;99.90
74384;DHT22;62824;52.994;-3.936;2024-02-14T11:28:41;10.70;99.90
74384;DHT22;62824;52.994;-3.936;2024-02-14T11:31:08;10.60;99.90
74384;DHT22;62824;52.994;-3.936;2024-02-14T11:33:35;10.70;99.90
74384;DHT22;62824;52.994;-3.936;2024-02-14T11:36:08;10.70;99.90
74384;DHT22;62824;52.994;-3.936;2024-02-14T11:38:36;10.70;99.90
74384;DHT22;62824;52.994;-3.936;2024-02-14T11:41:03;10.60;99.90
74384;DHT22;62824;52.994;-3.936;2024-02-14T11:43:29;10.60;99.90
74384;DHT22;62824;52.994;-3.936;2024-02-14T11:45:55;10.70;99.90
74384;DHT22;62824;52.994;-3.936;2024-02-14T11:48:21;10.60;99.90
74384;DHT22;62824;52.994;-3.936;2024-02-14T11:50:50;10.60;99.90
74384;DHT22;62824;52.994;-3.936;2024-02-14T11:53:18;10.70;99.90
74384;DHT22;62824;52.994;-3.936;2024-02-14T11:55:45;10.70;99.90
74384;DHT22;62824;52.994;-3.936;2024-02-14T11:58:13;10.80;99.90
74384;DHT22;62824;52.994;-3.936;2024-02-14T12:00:40;10.70;99.90
74384;DHT22;62824;52.994;-3.936;2024-02-14T12:03:09;10.80;99.90
74384;DHT22;62824;52.994;-3.936;2024-02-14T12:05:37;10.70;99.90
74384;DHT22;62824;52.994;-3.936;2024-02-14T12:08:06;10.80;99.90
74384;DHT22;62824;52.994;-3.936;2024-02-14T12:10:33;10.80;99.90
74384;DHT22;62824;52.994;-3.936;2024-02-14T12:13:11;10.80;99.90
74384;DHT22;62824;52.994;-3.936;2024-02-14T12:15:45;10.70;99.90
74384;DHT22;62824;52.994;-3.936;2024-02-14T12:18:12;10.80;99.90
74384;DHT22;62824;52.994;-3.936;2024-02-14T12:20:42;10.70;99.90
74384;DHT22;62824;52.994;-3.936;2024-02-14T12:23:14;10.80;99.90
74384;DHT22;62824;52.994;-3.936;2024-02-14T12:25:43;10.70;99.90
74384;DHT22;62824;52.994;-3.936;2024-02-14T12:28:13;10.70;99.90
74384;DHT22;62824;52.994;-3.936;2024-02-14T12:30:46;10.70;99.90
74384;DHT22;62824;52.994;-3.936;2024-02-14T12:33:14;10.70;99.90
74384;DHT22;62824;52.994;-3.936;2024-02-14T12:35:43;10.70;99.90
74384;DHT22;62824;52.994;-3.936;2024-02-14T12:38:10;10.60;99.90
74384;DHT22;62824;52.994;-3.936;2024-02-14T12:40:36;10.70;99.90
74384;DHT22;62824;52.994;-3.936;2024-02-14T12:43:02;10.60;99.90
74384;DHT22;62824;52.994;-3.936;2024-02-14T12:45:31;10.70;99.90
74384;DHT22;62824;52.994;-3.936;2024-02-14T12:47:57;10.60;99.90
74384;DHT22;62824;52.994;-3.936;2024-02-14T12:50:23;10.60;99.90
74384;DHT22;62824;52.994;-3.936;2024-02-14T12:52:49;10.70;99.90
74384;DHT22;62824;52.994;-3.936;2024-02-14T12:55:15;10.70;99.90
74384;DHT22;62824;52.994;-3.936;2024-02-14T12:57:41;10.60;99.90
74384;DHT22;62824;52.994;-3.936;2024-02-14T13:00:07;10.70;99.90
74384;DHT22;62824;52.994;-3.936;2024-02-14T13:02:37;10.70;99.90
74384;DHT22;62824;52.994;-3.936;2024-02-14T13:05:06;10.70;99.90
74384;DHT22;62824;52.994;-3.936;2024-02-14T13:07:33;10.70;99.90
74384;DHT22;62824;52.994;-3.936;2024-02-14T13:09:59;10.70;99.90
74384;DHT22;62824;52.994;-3.936;2024-02-14T13:12:26;10.70;99.90
74384;DHT22;62824;52.994;-3.936;2024-02-14T13:14:52;10.70;99.90
74384;DHT22;62824;52.994;-3.936;2024-02-14T13:17:17;10.70;99.90
74384;DHT22;62824;52.994;-3.936;2024-02-14T13:19:45;10.70;99.90
74384;DHT22;62824;52.994;-3.936;2024-02-14T13:22:11;10.70;99.90
74384;DHT22;62824;52.994;-3.936;2024-02-14T13:24:37;10.70;99.90
74384;DHT22;62824;52.994;-3.936;2024-02-14T13:27:04;10.70;99.90
74384;DHT22;62824;52.994;-3.936;2024-02-14T13:29:29;10.60;99.90
74384;DHT22;62824;52.994;-3.936;2024-02-14T13:31:55;10.70;99.90
74384;DHT22;62824;52.994;-3.936;2024-02-14T13:34:21;10.70;99.90
74384;DHT22;62824;52.994;-3.936;2024-02-14T13:36:47;10.70;99.90
74384;DHT22;62824;52.994;-3.936;2024-02-14T13:39:14;10.60;99.90
74384;DHT22;62824;52.994;-3.936;2024-02-14T13:41:43;10.70;99.90
74384;DHT22;62824;52.994;-3.936;2024-02-14T13:44:10;10.70;99.90
74384;DHT22;62824;52.994;-3.936;2024-02-14T13:46:44;10.70;99.90
74384;DHT22;62824;52.994;-3.936;2024-02-14T13:49:11;10.80;99.90
74384;DHT22;62824;52.994;-3.936;2024-02-14T13:51:38;10.70;99.90
74384;DHT22;62824;52.994;-3.936;2024-02-14T13:54:04;10.70;99.90
74384;DHT22;62824;52.994;-3.936;2024-02-14T13:56:31;10.60;99.90
74384;DHT22;62824;52.994;-3.936;2024-02-14T13:58:57;10.70;99.90
74384;DHT22;62824;52.994;-3.936;2024-02-14T14:01:23;10.60;99.90
74384;DHT22;62824;52.994;-3.936;2024-02-14T14:03:52;10.60;99.90
74384;DHT22;62824;52.994;-3.936;2024-02-14T14:06:20;10.70;99.90
74384;DHT22;62824;52.994;-3.936;2024-02-14T14:08:46;10.70;99.90
74384;DHT22;62824;52.994;-3.936;2024-02-14T14:11:12;10.70;99.90
74384;DHT22;62824;52.994;-3.936;2024-02-14T14:13:38;10.70;99.90
74384;DHT22;62824;52.994;-3.936;2024-02-14T14:16:04;10.70;99.90
74384;DHT22;62824;52.994;-3.936;2024-02-14T14:18:31;10.70;99.90
74384;DHT22;62824;52.994;-3.936;2024-02-14T14:20:57;10.60;99.90
74384;DHT22;62824;52.994;-3.936;2024-02-14T14:23:23;10.70;99.90
74384;DHT22;62824;52.994;-3.936;2024-02-14T14:25:49;10.60;99.90
74384;DHT22;62824;52.994;-3.936;2024-02-14T14:28:15;10.60;99.90
74384;DHT22;62824;52.994;-3.936;2024-02-14T14:30:43;10.60;99.90
74384;DHT22;62824;52.994;-3.936;2024-02-14T14:33:09;10.60;99.90
74384;DHT22;62824;52.994;-3.936;2024-02-14T14:35:36;10.50;99.90
74384;DHT22;62824;52.994;-3.936;2024-02-14T14:38:05;10.60;99.90
74384;DHT22;62824;52.994;-3.936;2024-02-14T14:40:32;10.60;99.90
74384;DHT22;62824;52.994;-3.936;2024-02-14T14:42:58;10.50;99.90
74384;DHT22;62824;52.994;-3.936;2024-02-14T14:45:25;10.50;99.90
74384;DHT22;62824;52.994;-3.936;2024-02-14T14:47:52;10.60;99.90
74384;DHT22;62824;52.994;-3.936;2024-02-14T14:50:19;10.50;99.90
74384;DHT22;62824;52.994;-3.936;2024-02-14T14:52:45;10.60;99.90
74384;DHT22;62824;52.994;-3.936;2024-02-14T14:55:11;10.50;99.90
74384;DHT22;62824;52.994;-3.936;2024-02-14T14:57:37;10.60;99.90
74384;DHT22;62824;52.994;-3.936;2024-02-14T15:00:10;10.60;99.90
74384;DHT22;62824;52.994;-3.936;2024-02-14T15:02:43;10.50;99.90
74384;DHT22;62824;52.994;-3.936;2024-02-14T15:05:11;10.60;99.90
74384;DHT22;62824;52.994;-3.936;2024-02-14T15:07:38;10.50;99.90
74384;DHT22;62824;52.994;-3.936;2024-02-14T15:10:05;10.60;99.90
74384;DHT22;62824;52.994;-3.936;2024-02-14T15:12:31;10.60;99.90
74384;DHT22;62824;52.994;-3.936;2024-02-14T15:15:00;10.50;99.90